createdAt,value
2017-12-30T00:01:06.901Z,88.55
2017-12-30T00:03:34.631Z,88.71
2017-12-30T00:06:02.393Z,88.69
2017-12-30T00:08:30.167Z,88.66
2017-12-30T00:10:57.930Z,88.85
2017-12-30T00:13:25.651Z,88.92
2017-12-30T00:15:53.358Z,88.98
2017-12-30T00:18:21.083Z,89.09
2017-12-30T00:20:48.850Z,88.86
2017-12-30T00:23:16.524Z,88.65
2017-12-30T00:25:44.289Z,88.83
2017-12-30T00:28:12.870Z,88.91
2017-12-30T00:30:40.675Z,88.95
2017-12-30T00:33:08.393Z,88.91
2017-12-30T00:35:36.157Z,89.17
2017-12-30T00:38:03.873Z,89.15
2017-12-30T00:40:31.592Z,89.28
2017-12-30T00:42:59.310Z,89.40
2017-12-30T00:45:27.038Z,89.47
2017-12-30T00:47:54.724Z,89.60
2017-12-30T00:50:22.436Z,89.61
2017-12-30T00:52:50.053Z,89.68
2017-12-30T00:55:17.794Z,89.73
2017-12-30T00:57:45.599Z,89.61
2017-12-30T01:00:13.415Z,89.67
2017-12-30T01:02:41.091Z,89.53
2017-12-30T01:05:08.745Z,89.44
2017-12-30T01:07:36.451Z,89.47
2017-12-30T01:10:04.080Z,89.62
2017-12-30T01:12:31.793Z,89.63
2017-12-30T01:14:59.464Z,89.55
2017-12-30T01:17:27.179Z,89.53
2017-12-30T01:19:54.860Z,89.58
2017-12-30T01:22:22.571Z,89.62
2017-12-30T01:24:50.235Z,89.64
2017-12-30T01:27:17.964Z,89.82
2017-12-30T01:29:45.644Z,90.00
2017-12-30T01:32:13.376Z,90.00
2017-12-30T01:34:41.055Z,89.92
2017-12-30T01:37:08.781Z,90.00
2017-12-30T01:39:36.448Z,90.27
2017-12-30T01:42:04.174Z,90.36
2017-12-30T01:44:31.852Z,90.44
2017-12-30T01:46:59.698Z,90.53
2017-12-30T01:49:27.412Z,90.58
2017-12-30T01:51:55.133Z,90.78
2017-12-30T01:54:22.833Z,90.87
2017-12-30T01:56:50.567Z,90.89
2017-12-30T01:59:18.243Z,90.85
2017-12-30T02:01:45.972Z,90.91
2017-12-30T02:04:13.650Z,90.95
2017-12-30T02:06:41.429Z,91.09
2017-12-30T02:09:09.107Z,91.03
2017-12-30T02:11:36.828Z,91.09
2017-12-30T02:14:04.490Z,91.24
2017-12-30T02:16:32.216Z,91.38
2017-12-30T02:18:59.895Z,91.44
2017-12-30T02:21:27.625Z,91.43
2017-12-30T02:23:55.326Z,91.49
2017-12-30T02:26:23.055Z,91.44
2017-12-30T02:28:50.742Z,91.54
2017-12-30T02:31:18.496Z,91.51
2017-12-30T02:33:46.233Z,91.53
2017-12-30T02:36:13.920Z,91.50
2017-12-30T02:38:41.638Z,91.48
2017-12-30T02:41:09.316Z,91.53
2017-12-30T02:43:37.035Z,91.42
2017-12-30T02:46:04.710Z,91.42
2017-12-30T02:48:32.418Z,91.48
2017-12-30T02:51:00.090Z,91.52
2017-12-30T02:53:27.815Z,91.50
2017-12-30T02:55:55.656Z,91.56
2017-12-30T02:58:23.372Z,91.51
2017-12-30T03:00:51.052Z,91.55
2017-12-30T03:03:18.805Z,91.65
2017-12-30T03:05:46.482Z,91.62
2017-12-30T03:08:14.268Z,91.76
2017-12-30T03:10:41.949Z,91.79
2017-12-30T03:13:09.663Z,91.85
2017-12-30T03:15:37.338Z,91.93
2017-12-30T03:18:05.064Z,92.16
2017-12-30T03:20:32.735Z,92.24
2017-12-30T03:23:00.449Z,92.26
2017-12-30T03:25:28.122Z,92.42
2017-12-30T03:27:55.834Z,92.58
2017-12-30T03:30:23.540Z,92.60
2017-12-30T03:32:51.255Z,92.67
2017-12-30T03:35:18.929Z,92.78
2017-12-30T03:37:46.658Z,92.98
2017-12-30T03:40:14.327Z,93.12
2017-12-30T03:42:42.051Z,93.17
2017-12-30T03:45:09.725Z,93.13
2017-12-30T03:47:37.460Z,93.20
2017-12-30T03:50:05.144Z,93.27
2017-12-30T03:52:32.869Z,93.29
2017-12-30T03:55:00.540Z,93.43
2017-12-30T03:57:28.259Z,93.34
2017-12-30T03:59:55.929Z,93.37
2017-12-30T04:02:23.651Z,93.44
2017-12-30T04:04:51.259Z,93.51
2017-12-30T04:07:19.035Z,93.57
2017-12-30T04:09:46.761Z,93.69
2017-12-30T04:12:14.440Z,93.93
2017-12-30T04:14:42.151Z,93.93
2017-12-30T04:17:09.838Z,93.89
2017-12-30T04:19:37.560Z,94.08
2017-12-30T04:22:05.235Z,94.55
2017-12-30T04:24:32.946Z,94.81
2017-12-30T04:27:00.633Z,95.09
2017-12-30T04:29:28.355Z,95.43
2017-12-30T04:31:56.036Z,95.59
2017-12-30T04:34:23.757Z,95.68
2017-12-30T04:36:51.435Z,95.81
2017-12-30T04:39:19.158Z,95.87
2017-12-30T04:41:46.841Z,95.81
2017-12-30T04:44:14.561Z,95.83
2017-12-30T04:46:42.222Z,95.86
2017-12-30T04:49:09.944Z,95.93
2017-12-30T04:51:37.635Z,95.95
2017-12-30T04:54:05.355Z,96.02
2017-12-30T04:56:33.041Z,96.01
2017-12-30T04:59:00.886Z,95.95
2017-12-30T05:01:28.563Z,95.84
2017-12-30T05:03:56.295Z,95.76
2017-12-30T05:06:24.024Z,95.70
2017-12-30T05:08:51.743Z,95.61
2017-12-30T05:11:19.415Z,95.60
2017-12-30T05:13:47.140Z,95.54
2017-12-30T05:16:14.807Z,95.46
2017-12-30T05:18:42.529Z,95.50
2017-12-30T05:21:10.207Z,95.53
2017-12-30T05:23:37.920Z,95.46
2017-12-30T05:26:05.601Z,95.36
2017-12-30T05:28:33.317Z,95.39
2017-12-30T05:31:01.009Z,95.26
2017-12-30T05:33:28.723Z,95.30
2017-12-30T05:35:56.410Z,95.34
2017-12-30T05:38:24.118Z,95.38
2017-12-30T05:40:51.807Z,95.29
2017-12-30T05:43:19.523Z,95.24
2017-12-30T05:45:47.210Z,95.11
2017-12-30T05:48:14.934Z,95.05
2017-12-30T05:50:42.616Z,95.03
2017-12-30T05:53:10.287Z,95.06
2017-12-30T05:55:38.011Z,95.13
2017-12-30T05:58:05.696Z,95.09
2017-12-30T06:00:33.419Z,95.13
2017-12-30T06:03:01.095Z,95.17
2017-12-30T06:05:28.810Z,95.22
2017-12-30T06:07:56.539Z,95.24
2017-12-30T06:10:24.283Z,95.31
2017-12-30T06:12:51.986Z,95.29
2017-12-30T06:15:19.710Z,95.21
2017-12-30T06:17:47.391Z,95.20
2017-12-30T06:20:15.102Z,95.20
2017-12-30T06:22:42.785Z,95.16
2017-12-30T06:25:10.513Z,95.18
2017-12-30T06:27:38.199Z,95.28
2017-12-30T06:30:05.911Z,95.36
2017-12-30T06:32:34.479Z,95.47
2017-12-30T06:35:02.207Z,95.62
2017-12-30T06:37:29.879Z,95.69
2017-12-30T06:39:57.598Z,95.76
2017-12-30T06:42:25.273Z,95.83
2017-12-30T06:44:52.996Z,95.79
2017-12-30T06:47:20.682Z,95.92
2017-12-30T06:49:48.424Z,95.89
2017-12-30T06:52:16.102Z,96.00
2017-12-30T06:54:43.857Z,96.10
2017-12-30T06:57:11.541Z,95.99
2017-12-30T06:59:39.274Z,95.92
2017-12-30T07:02:06.979Z,95.98
2017-12-30T07:04:34.732Z,96.09
2017-12-30T07:07:02.447Z,96.27
2017-12-30T07:09:30.117Z,96.42
2017-12-30T07:11:57.804Z,96.52
2017-12-30T07:14:25.519Z,96.58
2017-12-30T07:16:53.220Z,96.54
2017-12-30T07:19:20.890Z,96.62
2017-12-30T07:21:48.591Z,96.61
2017-12-30T07:24:16.311Z,96.55
2017-12-30T07:26:43.996Z,96.52
2017-12-30T07:29:11.731Z,96.64
2017-12-30T07:31:39.408Z,96.68
2017-12-30T07:34:07.087Z,96.61
2017-12-30T07:36:34.813Z,96.52
2017-12-30T07:39:02.535Z,96.47
2017-12-30T07:41:30.285Z,96.42
2017-12-30T07:43:57.981Z,96.49
2017-12-30T07:46:25.732Z,96.58
2017-12-30T07:48:53.408Z,96.50
2017-12-30T07:51:21.157Z,96.49
2017-12-30T07:53:48.847Z,96.53
2017-12-30T07:56:16.577Z,96.56
2017-12-30T07:58:44.259Z,96.61
2017-12-30T08:01:11.982Z,96.63
2017-12-30T08:03:39.671Z,96.64
2017-12-30T08:06:07.405Z,96.57
2017-12-30T08:08:35.125Z,96.46
2017-12-30T08:11:02.873Z,96.41
2017-12-30T08:13:30.557Z,96.37
2017-12-30T08:15:58.281Z,96.31
2017-12-30T08:18:25.962Z,96.24
2017-12-30T08:20:53.690Z,96.15
2017-12-30T08:23:21.354Z,96.14
2017-12-30T08:25:49.101Z,96.10
2017-12-30T08:28:16.790Z,96.04
2017-12-30T08:30:44.515Z,95.98
2017-12-30T08:33:12.201Z,95.86
2017-12-30T08:35:39.936Z,95.78
2017-12-30T08:38:07.623Z,95.70
2017-12-30T08:40:35.355Z,95.55
2017-12-30T08:43:03.034Z,95.29
2017-12-30T08:45:30.767Z,94.91
2017-12-30T08:47:58.468Z,94.55
2017-12-30T08:50:26.209Z,94.34
2017-12-30T08:52:53.899Z,94.14
2017-12-30T08:55:21.639Z,94.12
2017-12-30T08:57:49.444Z,94.12
2017-12-30T09:00:29.496Z,94.08
2017-12-30T09:02:57.168Z,94.15
2017-12-30T09:05:24.845Z,94.03
2017-12-30T09:07:52.477Z,94.07
2017-12-30T09:10:20.144Z,93.93
2017-12-30T09:12:47.757Z,93.90
2017-12-30T09:15:15.429Z,93.79
2017-12-30T09:17:43.040Z,93.76
2017-12-30T09:20:10.731Z,93.80
2017-12-30T09:22:38.342Z,93.65
2017-12-30T09:25:06.019Z,93.58
2017-12-30T09:27:33.747Z,93.44
2017-12-30T09:30:01.436Z,93.35
2017-12-30T09:32:29.185Z,93.25
2017-12-30T09:34:56.863Z,93.21
2017-12-30T09:37:24.537Z,93.20
2017-12-30T09:39:52.233Z,93.27
2017-12-30T09:42:19.900Z,93.14
2017-12-30T09:44:47.601Z,92.86
2017-12-30T09:47:15.266Z,92.84
2017-12-30T09:49:42.939Z,92.45
2017-12-30T09:52:10.596Z,92.37
2017-12-30T09:54:38.209Z,92.21
2017-12-30T09:57:05.879Z,91.94
2017-12-30T09:59:33.483Z,91.85
2017-12-30T10:02:01.163Z,91.75
2017-12-30T10:04:28.772Z,91.37
2017-12-30T10:06:56.432Z,91.53
2017-12-30T10:09:24.046Z,91.18
2017-12-30T10:11:51.737Z,91.35
2017-12-30T10:14:22.538Z,91.27
2017-12-30T10:16:50.729Z,91.23
2017-12-30T10:19:18.422Z,91.11
2017-12-30T10:21:46.116Z,91.31
2017-12-30T10:24:13.736Z,91.18
2017-12-30T10:26:41.418Z,91.15
2017-12-30T10:29:09.129Z,91.26
2017-12-30T10:31:36.803Z,90.67
2017-12-30T10:34:04.424Z,90.59
2017-12-30T10:36:32.163Z,90.46
2017-12-30T10:39:00.651Z,90.31
2017-12-30T10:41:28.371Z,89.94
2017-12-30T10:43:56.004Z,89.95
2017-12-30T10:46:23.679Z,90.00
2017-12-30T10:48:51.306Z,89.64
2017-12-30T10:51:19.028Z,89.52
2017-12-30T10:53:46.701Z,89.65
2017-12-30T10:56:14.371Z,89.66
2017-12-30T10:58:41.984Z,89.65
2017-12-30T11:01:09.740Z,89.80
2017-12-30T11:03:37.363Z,89.67
2017-12-30T11:06:05.067Z,89.58
2017-12-30T11:08:32.836Z,89.11
2017-12-30T11:11:00.548Z,88.96
2017-12-30T11:13:28.205Z,88.82
2017-12-30T11:15:55.879Z,88.94
2017-12-30T11:18:23.556Z,88.76
2017-12-30T11:20:51.185Z,88.51
2017-12-30T11:23:18.854Z,88.15
2017-12-30T11:25:46.476Z,88.39
2017-12-30T11:28:14.157Z,88.43
2017-12-30T11:30:41.763Z,88.06
2017-12-30T11:33:09.513Z,88.27
2017-12-30T11:35:37.126Z,88.26
2017-12-30T11:38:04.862Z,87.70
2017-12-30T11:40:32.484Z,87.81
2017-12-30T11:43:00.172Z,87.60
2017-12-30T11:45:27.795Z,87.72
2017-12-30T11:47:55.536Z,87.67
2017-12-30T11:50:23.160Z,87.33
2017-12-30T11:52:50.903Z,87.27
2017-12-30T11:55:18.589Z,87.51
2017-12-30T11:57:46.246Z,87.71
2017-12-30T12:00:13.846Z,87.67
2017-12-30T12:02:41.511Z,87.89
2017-12-30T12:05:09.124Z,88.51
2017-12-30T12:07:36.892Z,89.03
2017-12-30T12:10:04.544Z,89.44
2017-12-30T12:12:32.222Z,90.06
2017-12-30T12:14:59.844Z,90.54
2017-12-30T12:17:27.586Z,91.19
2017-12-30T12:19:55.218Z,91.56
2017-12-30T12:22:22.971Z,92.09
2017-12-30T12:24:50.590Z,92.67
2017-12-30T12:27:18.247Z,93.20
2017-12-30T12:29:45.864Z,93.71
2017-12-30T12:32:13.623Z,93.86
2017-12-30T12:34:41.531Z,94.19
2017-12-30T12:37:09.248Z,94.56
2017-12-30T12:39:36.863Z,94.83
2017-12-30T12:42:04.539Z,94.95
2017-12-30T12:44:32.208Z,95.49
2017-12-30T12:46:59.841Z,95.73
2017-12-30T12:49:37.571Z,95.94
2017-12-30T12:52:05.193Z,95.69
2017-12-30T12:54:32.860Z,96.22
2017-12-30T12:57:02.291Z,96.49
2017-12-30T12:59:30.008Z,96.71
2017-12-30T13:02:01.084Z,96.82
2017-12-30T13:04:31.058Z,97.24
2017-12-30T13:07:00.618Z,97.37
2017-12-30T13:09:28.549Z,97.26
2017-12-30T13:11:56.183Z,97.48
2017-12-30T13:14:23.861Z,97.62
2017-12-30T13:16:51.528Z,97.68
2017-12-30T13:19:19.205Z,97.63
2017-12-30T13:21:46.830Z,97.93
2017-12-30T13:24:14.566Z,98.01
2017-12-30T13:26:42.188Z,97.95
2017-12-30T13:29:09.961Z,98.13
2017-12-30T13:31:37.575Z,98.40
2017-12-30T13:34:05.268Z,98.59
2017-12-30T13:36:32.914Z,98.71
2017-12-30T13:39:00.584Z,98.82
2017-12-30T13:41:28.234Z,99.14
2017-12-30T13:43:55.974Z,99.25
2017-12-30T13:46:23.648Z,99.41
2017-12-30T13:48:51.343Z,99.50
2017-12-30T13:51:19.036Z,99.59
2017-12-30T13:53:46.772Z,99.72
2017-12-30T13:56:14.438Z,99.76
2017-12-30T13:58:42.105Z,99.79
2017-12-30T14:01:09.788Z,99.81
2017-12-30T14:03:37.515Z,99.96
2017-12-30T14:06:05.172Z,100.00
2017-12-30T14:08:32.840Z,100.00
2017-12-30T14:11:00.524Z,100.00
2017-12-30T14:13:28.260Z,100.00
2017-12-30T14:15:55.873Z,100.00
2017-12-30T14:18:23.611Z,100.00
2017-12-30T14:20:51.348Z,100.00
2017-12-30T14:23:19.028Z,100.00
2017-12-30T14:25:46.718Z,100.00
2017-12-30T14:28:14.393Z,100.00
2017-12-30T14:30:42.053Z,100.00
2017-12-30T14:33:09.731Z,100.00
2017-12-30T14:35:37.366Z,100.00
2017-12-30T14:38:09.299Z,100.00
2017-12-30T14:40:37.067Z,100.00
2017-12-30T14:43:04.683Z,100.00
2017-12-30T14:45:32.404Z,100.00
2017-12-30T14:48:00.102Z,100.00
2017-12-30T14:50:27.833Z,100.00
2017-12-30T14:52:55.492Z,100.00
2017-12-30T14:55:23.235Z,100.00
2017-12-30T14:57:50.982Z,100.00
2017-12-30T15:00:18.702Z,100.00
2017-12-30T15:02:46.312Z,100.00
2017-12-30T15:05:14.040Z,100.00
2017-12-30T15:07:41.790Z,100.00
2017-12-30T15:10:09.462Z,100.00
2017-12-30T15:12:37.091Z,100.00
2017-12-30T15:15:04.817Z,100.00
2017-12-30T15:17:32.526Z,100.00
2017-12-30T15:20:00.268Z,100.00
2017-12-30T15:22:27.975Z,100.00
2017-12-30T15:24:55.713Z,100.00
2017-12-30T15:27:23.460Z,100.00
2017-12-30T15:29:51.216Z,100.00
2017-12-30T15:32:19.083Z,100.00
2017-12-30T15:34:46.835Z,100.00
2017-12-30T15:37:14.533Z,100.00
2017-12-30T15:39:42.229Z,100.00
2017-12-30T15:42:09.936Z,100.00
2017-12-30T15:44:37.669Z,100.00
2017-12-30T15:47:05.348Z,100.00
2017-12-30T15:49:33.129Z,100.00
2017-12-30T15:52:00.823Z,100.00
2017-12-30T15:54:28.509Z,100.00
2017-12-30T15:56:56.226Z,100.00
2017-12-30T15:59:23.999Z,100.00
2017-12-30T16:01:51.667Z,100.00
2017-12-30T16:04:19.408Z,100.00
2017-12-30T16:06:47.131Z,100.00
2017-12-30T16:09:14.851Z,100.00
2017-12-30T16:11:42.562Z,100.00
2017-12-30T16:14:10.284Z,100.00
2017-12-30T16:16:37.955Z,100.00
2017-12-30T16:19:05.645Z,100.00
2017-12-30T16:21:33.371Z,100.00
2017-12-30T16:24:01.035Z,100.00
2017-12-30T16:26:28.764Z,100.00
2017-12-30T16:28:56.404Z,100.00
2017-12-30T16:31:24.164Z,100.00
2017-12-30T16:33:51.860Z,100.00
2017-12-30T16:36:19.603Z,100.00
2017-12-30T16:38:47.300Z,100.00
2017-12-30T16:41:15.064Z,100.00
2017-12-30T16:43:42.750Z,100.00
2017-12-30T16:46:10.507Z,100.00
2017-12-30T16:48:38.203Z,100.00
2017-12-30T16:51:05.983Z,100.00
2017-12-30T16:53:33.681Z,100.00
2017-12-30T16:56:01.475Z,100.00
2017-12-30T16:58:29.168Z,100.00
2017-12-30T17:00:56.910Z,100.00
2017-12-30T17:03:24.638Z,100.00
2017-12-30T17:05:52.367Z,100.00
2017-12-30T17:08:20.117Z,100.00
2017-12-30T17:10:47.849Z,100.00
2017-12-30T17:13:15.455Z,100.00
2017-12-30T17:15:43.272Z,100.00
2017-12-30T17:18:10.958Z,100.00
2017-12-30T17:20:38.700Z,100.00
2017-12-30T17:23:06.403Z,100.00
2017-12-30T17:25:34.139Z,100.00
2017-12-30T17:28:14.424Z,100.00
2017-12-30T17:30:51.383Z,100.00
2017-12-30T17:33:29.313Z,100.00
2017-12-30T17:35:58.529Z,100.00
2017-12-30T17:38:26.176Z,100.00
2017-12-30T17:40:53.921Z,100.00
2017-12-30T17:43:21.628Z,100.00
2017-12-30T17:45:49.429Z,100.00
2017-12-30T17:48:17.171Z,100.00
2017-12-30T17:50:44.902Z,100.00
2017-12-30T17:53:12.625Z,100.00
2017-12-30T17:55:40.364Z,100.00
2017-12-30T17:58:08.124Z,100.00
2017-12-30T18:00:35.902Z,100.00
2017-12-30T18:03:03.601Z,100.00
2017-12-30T18:05:31.357Z,100.00
2017-12-30T18:07:59.155Z,100.00
2017-12-30T18:10:26.869Z,100.00
2017-12-30T18:12:54.597Z,100.00
2017-12-30T18:15:22.361Z,100.00
2017-12-30T18:17:50.087Z,100.00
2017-12-30T18:20:17.838Z,100.00
2017-12-30T18:22:45.578Z,100.00
2017-12-30T18:25:13.246Z,100.00
2017-12-30T18:27:41.030Z,100.00
2017-12-30T18:30:08.753Z,100.00
2017-12-30T18:32:36.503Z,100.00
2017-12-30T18:35:04.239Z,100.00
2017-12-30T18:37:31.987Z,100.00
2017-12-30T18:39:59.719Z,100.00
2017-12-30T18:42:27.464Z,100.00
2017-12-30T18:44:55.204Z,100.00
2017-12-30T18:47:22.990Z,100.00
2017-12-30T18:49:50.754Z,100.00
2017-12-30T18:52:18.458Z,99.95
2017-12-30T18:54:46.168Z,98.52
2017-12-30T18:57:13.935Z,97.63
2017-12-30T18:59:41.621Z,96.88
2017-12-30T19:02:09.394Z,96.06
2017-12-30T19:04:37.067Z,95.92
2017-12-30T19:07:04.910Z,96.23
2017-12-30T19:09:32.660Z,96.00
2017-12-30T19:12:00.395Z,96.01
2017-12-30T19:14:28.104Z,96.16
2017-12-30T19:16:55.880Z,96.27
2017-12-30T19:19:23.612Z,96.24
2017-12-30T19:21:51.330Z,96.23
2017-12-30T19:24:19.050Z,96.50
2017-12-30T19:26:46.825Z,96.65
2017-12-30T19:29:14.530Z,96.84
2017-12-30T19:31:42.295Z,96.93
2017-12-30T19:34:10.019Z,96.80
2017-12-30T19:36:37.793Z,96.82
2017-12-30T19:39:05.573Z,96.37
2017-12-30T19:41:33.353Z,94.99
2017-12-30T19:44:01.091Z,94.19
2017-12-30T19:46:28.892Z,94.01
2017-12-30T19:48:56.746Z,93.41
2017-12-30T19:51:24.522Z,92.36
2017-12-30T19:53:52.259Z,92.65
2017-12-30T19:56:20.054Z,91.46
2017-12-30T19:58:47.788Z,90.05
2017-12-30T20:01:15.576Z,89.09
2017-12-30T20:03:43.298Z,89.28
2017-12-30T20:06:11.029Z,88.84
2017-12-30T20:08:38.853Z,88.77
2017-12-30T20:11:06.608Z,88.67
2017-12-30T20:13:34.387Z,86.96
2017-12-30T20:16:02.119Z,86.83
2017-12-30T20:18:29.883Z,84.70
2017-12-30T20:20:57.610Z,85.98
2017-12-30T20:23:25.386Z,85.25
2017-12-30T20:25:53.101Z,83.67
2017-12-30T20:28:20.890Z,85.32
2017-12-30T20:30:48.639Z,85.56
2017-12-30T20:33:16.427Z,85.43
2017-12-30T20:35:44.164Z,85.13
2017-12-30T20:38:11.964Z,85.30
2017-12-30T20:40:39.716Z,85.98
2017-12-30T20:43:07.500Z,86.16
2017-12-30T20:45:35.239Z,86.15
2017-12-30T20:48:03.037Z,86.00
2017-12-30T20:50:30.827Z,86.23
2017-12-30T20:52:58.626Z,85.69
2017-12-30T20:55:26.369Z,85.53
2017-12-30T20:57:54.136Z,84.47
2017-12-30T21:00:21.874Z,85.12
2017-12-30T21:02:49.677Z,84.69
2017-12-30T21:05:17.425Z,84.63
2017-12-30T21:07:45.245Z,85.38
2017-12-30T21:10:12.981Z,85.58
2017-12-30T21:12:40.817Z,85.68
2017-12-30T21:15:08.558Z,85.92
2017-12-30T21:17:36.330Z,85.87
2017-12-30T21:20:04.119Z,85.90
2017-12-30T21:22:31.886Z,85.33
2017-12-30T21:24:59.651Z,83.83
2017-12-30T21:27:27.429Z,84.65
2017-12-30T21:29:55.149Z,85.18
2017-12-30T21:32:22.923Z,85.45
2017-12-30T21:34:50.667Z,84.45
2017-12-30T21:37:18.461Z,82.62
2017-12-30T21:39:46.195Z,83.46
2017-12-30T21:42:13.987Z,83.24
2017-12-30T21:44:41.716Z,82.64
2017-12-30T21:47:09.485Z,82.74
2017-12-30T21:49:37.266Z,82.88
2017-12-30T21:52:05.019Z,82.71
2017-12-30T21:54:32.802Z,83.35
2017-12-30T21:57:00.531Z,82.70
2017-12-30T21:59:28.326Z,82.23
2017-12-30T22:01:56.085Z,82.72
2017-12-30T22:04:23.857Z,83.12
2017-12-30T22:06:51.538Z,83.34
2017-12-30T22:09:19.341Z,83.31
2017-12-30T22:11:47.059Z,83.15
2017-12-30T22:14:14.864Z,81.90
2017-12-30T22:16:42.615Z,81.87
2017-12-30T22:19:10.543Z,82.28
2017-12-30T22:21:38.276Z,82.61
2017-12-30T22:24:06.045Z,83.07
2017-12-30T22:26:33.770Z,82.25
2017-12-30T22:29:01.493Z,83.94
2017-12-30T22:31:29.231Z,83.13
2017-12-30T22:33:57.018Z,83.02
2017-12-30T22:36:24.753Z,84.03
2017-12-30T22:38:52.538Z,83.23
2017-12-30T22:41:20.251Z,83.93
2017-12-30T22:43:48.014Z,84.53
2017-12-30T22:46:15.741Z,84.27
2017-12-30T22:48:43.523Z,84.44
2017-12-30T22:51:11.300Z,83.98
2017-12-30T22:53:39.059Z,83.33
2017-12-30T22:56:06.793Z,83.88
2017-12-30T22:58:34.560Z,83.66
2017-12-30T23:01:08.208Z,84.18
2017-12-30T23:03:36.024Z,82.64
2017-12-30T23:06:03.740Z,82.20
2017-12-30T23:08:31.572Z,82.78
2017-12-30T23:10:59.317Z,82.56
2017-12-30T23:13:27.087Z,82.09
2017-12-30T23:15:54.818Z,82.04
2017-12-30T23:18:22.593Z,82.72
2017-12-30T23:20:50.320Z,82.81
2017-12-30T23:23:18.101Z,83.32
2017-12-30T23:25:46.396Z,83.61
2017-12-30T23:28:14.182Z,83.77
2017-12-30T23:30:41.907Z,83.47
2017-12-30T23:33:09.634Z,84.02
2017-12-30T23:35:37.412Z,84.13
2017-12-30T23:38:05.178Z,84.10
2017-12-30T23:40:32.949Z,84.46
2017-12-30T23:43:00.659Z,84.57
2017-12-30T23:45:28.436Z,85.41
2017-12-30T23:47:56.153Z,85.81
2017-12-30T23:50:23.930Z,85.93
2017-12-30T23:52:51.668Z,86.23
2017-12-30T23:55:19.447Z,86.42
2017-12-30T23:57:47.184Z,86.91
